createdAt,value
2022-10-24T00:01:55.514Z,16.75
2022-10-24T00:04:22.604Z,14.10
2022-10-24T00:15:19.437Z,13.65
2022-10-24T00:18:01.485Z,12.63
2022-10-24T00:20:28.564Z,10.73
2022-10-24T00:22:55.661Z,11.23
2022-10-24T00:25:26.411Z,13.38
2022-10-24T00:27:53.515Z,13.23
2022-10-24T00:30:22.166Z,12.02
2022-10-24T00:32:52.348Z,12.63
2022-10-24T00:35:20.193Z,13.02
2022-10-24T00:37:47.613Z,12.73
2022-10-24T00:40:40.080Z,11.95
2022-10-24T00:44:15.891Z,14.10
2022-10-24T00:46:46.977Z,14.50
2022-10-24T00:49:41.694Z,16.30
2022-10-24T00:52:10.380Z,14.13
2022-10-24T00:54:39.542Z,16.60
2022-10-24T00:57:38.038Z,15.55
2022-10-24T01:00:17.006Z,16.92
2022-10-24T01:02:44.476Z,14.50
2022-10-24T01:05:12.627Z,13.00
2022-10-24T01:08:10.781Z,13.32
2022-10-24T01:11:05.977Z,14.52
2022-10-24T01:13:54.187Z,16.02
2022-10-24T01:16:28.597Z,14.27
2022-10-24T01:19:30.608Z,12.45
2022-10-24T01:22:03.463Z,14.35
2022-10-24T01:25:13.814Z,16.58
2022-10-24T01:28:09.353Z,17.73
2022-10-24T01:31:00.488Z,14.50
2022-10-24T01:33:37.891Z,15.07
2022-10-24T01:36:38.729Z,14.07
2022-10-24T01:39:13.049Z,18.65
2022-10-24T01:44:17.072Z,16.05
2022-10-24T01:47:14.419Z,15.15
2022-10-24T01:49:46.310Z,14.82
2022-10-24T01:53:22.528Z,16.60
2022-10-24T01:55:54.444Z,14.85
2022-10-24T02:03:47.897Z,17.27
2022-10-24T02:06:28.450Z,16.30
2022-10-24T02:09:35.397Z,14.68
2022-10-24T02:12:03.509Z,16.10
2022-10-24T02:15:13.049Z,14.30
2022-10-24T02:17:40.211Z,14.10
2022-10-24T02:20:31.009Z,17.60
2022-10-24T02:23:25.975Z,15.85
2022-10-24T02:28:52.522Z,16.33
2022-10-24T02:35:39.511Z,14.27
2022-10-24T02:38:28.619Z,16.25
2022-10-24T02:41:21.383Z,13.27
2022-10-24T02:43:51.181Z,13.20
2022-10-24T02:55:15.479Z,11.55
2022-10-24T02:57:42.546Z,14.02
2022-10-24T03:01:00.726Z,10.43
2022-10-24T03:03:28.015Z,12.05
2022-10-24T03:05:55.062Z,12.40
2022-10-24T03:13:38.806Z,10.50
2022-10-24T03:16:08.981Z,10.43
2022-10-24T03:22:35.572Z,11.30
2022-10-24T03:25:03.801Z,10.30
2022-10-24T03:34:58.719Z,10.82
2022-10-24T03:38:22.870Z,11.82
2022-10-24T03:40:50.520Z,9.82
2022-10-24T03:43:18.310Z,9.25
2022-10-24T03:54:40.098Z,10.80
2022-10-24T03:57:09.602Z,9.35
2022-10-24T04:00:29.825Z,11.05
2022-10-24T04:02:57.083Z,11.00
2022-10-24T04:05:24.186Z,11.75
2022-10-24T04:16:18.180Z,8.95
2022-10-24T04:18:45.483Z,8.93
2022-10-24T04:21:15.871Z,8.95
2022-10-24T04:23:45.146Z,9.77
2022-10-24T04:27:09.747Z,10.95
2022-10-24T04:29:37.009Z,9.68
2022-10-24T04:32:04.537Z,11.43
2022-10-24T04:35:08.237Z,9.55
2022-10-24T04:37:35.428Z,9.93
2022-10-24T04:40:02.791Z,10.32
2022-10-24T04:43:33.776Z,9.27
2022-10-24T04:46:02.665Z,10.25
2022-10-24T04:48:29.887Z,9.50
2022-10-24T04:51:47.739Z,8.85
2022-10-24T04:54:14.862Z,9.63
2022-10-24T04:56:42.450Z,7.93
2022-10-24T04:59:09.621Z,8.77
2022-10-24T05:01:36.834Z,7.82
2022-10-24T05:04:04.172Z,8.05
2022-10-24T05:16:19.740Z,8.20
2022-10-24T05:18:46.869Z,8.52
2022-10-24T05:21:14.001Z,8.10
2022-10-24T05:23:41.151Z,8.77
2022-10-24T05:26:08.662Z,8.43
2022-10-24T05:33:03.340Z,10.23
2022-10-24T05:35:31.508Z,7.95
2022-10-24T05:37:58.583Z,7.63
2022-10-24T05:40:26.260Z,9.45
2022-10-24T05:43:26.406Z,8.10
2022-10-24T05:45:53.545Z,7.95
2022-10-24T05:48:21.935Z,7.07
2022-10-24T05:52:05.596Z,8.88
2022-10-24T05:54:42.571Z,8.13
2022-10-24T06:07:16.711Z,8.27
2022-10-24T06:09:44.306Z,9.48
2022-10-24T06:12:43.689Z,8.93
2022-10-24T06:15:28.314Z,11.07
2022-10-24T06:18:16.935Z,10.48
2022-10-24T06:20:44.056Z,9.05
2022-10-24T06:23:11.211Z,9.40
2022-10-24T06:25:42.775Z,9.88
2022-10-24T06:31:18.528Z,10.40
2022-10-24T06:33:55.737Z,10.75
2022-10-24T06:36:26.804Z,10.95
2022-10-24T06:39:18.835Z,11.35
2022-10-24T06:41:46.566Z,8.80
2022-10-24T06:44:15.187Z,7.68
2022-10-24T06:47:44.012Z,10.35
2022-10-24T06:50:11.524Z,7.85
2022-10-24T06:52:39.927Z,7.38
2022-10-24T06:56:20.878Z,7.57
2022-10-24T06:58:48.022Z,7.65
2022-10-24T07:01:35.846Z,8.60
2022-10-24T07:04:03.329Z,9.20
2022-10-24T07:09:54.745Z,7.97
2022-10-24T07:19:55.896Z,7.70
2022-10-24T07:22:23.674Z,7.70
2022-10-24T07:25:16.804Z,7.07
2022-10-24T07:27:43.993Z,7.47
2022-10-24T07:33:53.553Z,6.78
2022-10-24T07:40:42.297Z,6.38
2022-10-24T07:43:09.733Z,6.00
2022-10-24T07:45:39.191Z,7.03
2022-10-24T07:48:26.579Z,6.25
2022-10-24T07:50:54.528Z,5.43
2022-10-24T07:53:22.278Z,6.00
2022-10-24T07:55:49.414Z,6.78
2022-10-24T07:58:18.887Z,6.07
2022-10-24T08:01:09.640Z,6.38
2022-10-24T08:03:37.302Z,5.63
2022-10-24T08:06:09.350Z,5.40
2022-10-24T08:08:37.885Z,5.00
2022-10-24T08:11:21.886Z,5.43
2022-10-24T08:13:50.928Z,5.10
2022-10-24T08:21:16.151Z,5.80
2022-10-24T08:23:46.621Z,5.63
2022-10-24T08:30:14.022Z,5.30
2022-10-24T08:32:41.195Z,6.20
2022-10-24T08:35:17.500Z,4.47
2022-10-24T08:37:45.284Z,5.30
2022-10-24T08:40:16.585Z,4.30
2022-10-24T08:42:53.106Z,4.78
2022-10-24T08:45:34.458Z,5.25
2022-10-24T08:48:28.525Z,5.35
2022-10-24T08:51:09.228Z,4.72
2022-10-24T08:53:43.605Z,5.18
2022-10-24T08:56:12.584Z,4.35
2022-10-24T08:59:30.003Z,4.80
2022-10-24T09:02:16.104Z,4.35
2022-10-24T09:04:59.788Z,3.60
2022-10-24T09:07:27.169Z,3.80
2022-10-24T09:10:57.846Z,3.83
2022-10-24T09:13:28.202Z,4.10
2022-10-24T09:15:56.111Z,3.63
2022-10-24T09:18:41.442Z,4.67
2022-10-24T09:21:16.132Z,4.05
2022-10-24T09:23:44.838Z,3.97
2022-10-24T09:26:44.132Z,3.83
2022-10-24T09:29:11.514Z,3.50
2022-10-24T09:32:00.218Z,3.30
2022-10-24T09:34:27.487Z,3.30
2022-10-24T09:36:54.733Z,2.97
2022-10-24T09:39:43.684Z,3.08
2022-10-24T09:42:22.191Z,3.50
2022-10-24T09:45:41.735Z,3.10
2022-10-24T09:48:30.777Z,3.35
2022-10-24T09:51:01.478Z,3.35
2022-10-24T09:53:33.766Z,2.80
2022-10-24T09:56:15.721Z,2.58
2022-10-24T09:58:46.182Z,2.67
2022-10-24T10:01:43.018Z,2.85
2022-10-24T10:04:19.272Z,2.72
2022-10-24T10:08:08.435Z,2.53
2022-10-24T10:10:37.924Z,3.03
2022-10-24T10:13:16.450Z,2.78
2022-10-24T10:15:53.668Z,2.88
2022-10-24T10:19:13.595Z,2.97
2022-10-24T10:22:02.047Z,3.03
2022-10-24T10:24:56.952Z,3.13
2022-10-24T10:27:37.780Z,3.15
2022-10-24T10:30:12.461Z,3.05
2022-10-24T10:33:10.728Z,2.90
2022-10-24T10:36:13.669Z,3.15
2022-10-24T10:38:51.543Z,2.85
2022-10-24T10:42:09.399Z,3.30
2022-10-24T10:44:47.023Z,3.45
2022-10-24T10:47:30.134Z,2.97
2022-10-24T10:49:58.929Z,3.28
2022-10-24T10:52:46.442Z,2.92
2022-10-24T10:55:38.019Z,3.05
2022-10-24T11:01:14.571Z,3.28
2022-10-24T11:04:13.575Z,3.10
2022-10-24T11:07:05.278Z,2.60
2022-10-24T11:09:59.564Z,3.05
2022-10-24T11:12:32.899Z,2.45
2022-10-24T11:15:20.972Z,3.30
2022-10-24T11:17:59.283Z,3.03
2022-10-24T11:20:44.720Z,2.90
2022-10-24T11:23:14.574Z,2.92
2022-10-24T11:25:59.446Z,3.28
2022-10-24T11:28:52.104Z,2.95
2022-10-24T11:31:35.498Z,2.88
2022-10-24T11:34:20.767Z,2.77
2022-10-24T11:36:53.488Z,3.33
2022-10-24T11:39:42.577Z,2.78
2022-10-24T11:42:45.842Z,3.30
2022-10-24T11:45:18.016Z,3.47
2022-10-24T11:47:52.513Z,3.92
2022-10-24T11:50:32.148Z,3.42
2022-10-24T11:53:33.367Z,2.67
2022-10-24T11:56:12.392Z,3.75
2022-10-24T11:58:57.594Z,2.83
2022-10-24T12:01:55.435Z,2.85
2022-10-24T12:04:38.161Z,2.92
2022-10-24T12:07:38.922Z,3.58
2022-10-24T12:10:48.973Z,3.17
2022-10-24T12:13:16.401Z,2.88
2022-10-24T12:16:12.446Z,3.42
2022-10-24T12:18:59.110Z,3.67
2022-10-24T12:21:34.566Z,3.63
2022-10-24T12:24:02.286Z,3.28
2022-10-24T12:26:59.947Z,4.28
2022-10-24T12:29:28.842Z,3.72
2022-10-24T12:31:56.013Z,3.92
2022-10-24T12:34:23.302Z,4.00
2022-10-24T12:37:04.171Z,3.67
2022-10-24T12:39:36.740Z,3.67
2022-10-24T12:42:24.116Z,3.70
2022-10-24T12:45:04.353Z,4.03
2022-10-24T12:47:52.940Z,3.13
2022-10-24T12:50:24.586Z,3.78
2022-10-24T12:52:56.911Z,3.50
2022-10-24T12:55:42.253Z,3.70
2022-10-24T12:58:36.912Z,3.20
2022-10-24T13:04:02.562Z,3.47
2022-10-24T13:07:05.318Z,3.22
2022-10-24T13:09:41.389Z,3.13
2022-10-24T13:12:36.447Z,4.13
2022-10-24T13:15:19.103Z,3.60
2022-10-24T13:17:52.599Z,3.63
2022-10-24T13:20:29.086Z,3.60
2022-10-24T13:23:06.287Z,3.53
2022-10-24T13:26:08.319Z,3.30
2022-10-24T13:28:39.633Z,3.72
2022-10-24T13:31:52.334Z,3.72
2022-10-24T13:34:37.303Z,3.80
2022-10-24T13:37:45.802Z,3.72
2022-10-24T13:40:32.337Z,4.22
2022-10-24T13:43:07.450Z,4.78
2022-10-24T13:45:46.814Z,4.20
2022-10-24T13:48:23.385Z,4.50
2022-10-24T13:51:15.636Z,4.75
2022-10-24T13:54:30.831Z,4.95
2022-10-24T13:56:59.872Z,5.43
2022-10-24T14:00:50.283Z,5.15
2022-10-24T14:03:20.684Z,5.60
2022-10-24T14:06:04.984Z,5.40
2022-10-24T14:08:50.159Z,6.13
2022-10-24T14:11:26.410Z,5.00
2022-10-24T14:13:56.848Z,5.28
2022-10-24T14:16:34.432Z,5.07
2022-10-24T14:19:33.715Z,5.50
2022-10-24T14:22:56.471Z,5.93
2022-10-24T14:25:31.196Z,5.47
2022-10-24T14:28:38.831Z,5.90
2022-10-24T14:31:08.980Z,5.93
2022-10-24T14:34:09.868Z,5.40
2022-10-24T14:36:39.392Z,5.88
2022-10-24T14:39:08.157Z,5.03
2022-10-24T14:41:41.520Z,4.40
2022-10-24T14:44:21.625Z,5.22
2022-10-24T14:47:19.081Z,5.30
2022-10-24T14:50:53.534Z,5.15
2022-10-24T14:53:29.844Z,4.72
2022-10-24T14:56:17.996Z,5.38
2022-10-24T14:58:49.687Z,5.60
2022-10-24T15:01:25.175Z,4.97
2022-10-24T15:03:54.822Z,5.32
2022-10-24T15:06:27.139Z,4.68
2022-10-24T15:09:07.334Z,6.47
2022-10-24T15:11:43.387Z,6.90
2022-10-24T15:14:39.747Z,8.10
2022-10-24T15:17:18.882Z,8.90
2022-10-24T15:19:47.386Z,12.15
2022-10-24T15:22:27.007Z,16.42
2022-10-24T15:24:56.064Z,33.20
2022-10-24T15:27:38.205Z,41.25
2022-10-24T15:30:11.561Z,32.85
2022-10-24T15:32:39.904Z,17.10
2022-10-24T15:35:08.625Z,7.95
2022-10-24T15:37:36.225Z,9.23
2022-10-24T15:40:14.923Z,6.45
2022-10-24T15:42:42.076Z,4.95
2022-10-24T15:45:34.694Z,5.10
2022-10-24T15:48:07.206Z,5.40
2022-10-24T15:50:37.742Z,4.93
2022-10-24T15:53:05.313Z,5.53
2022-10-24T15:55:32.713Z,5.53
2022-10-24T15:58:01.077Z,5.13
2022-10-24T16:00:28.249Z,5.60
2022-10-24T16:02:58.321Z,5.25
2022-10-24T16:05:54.961Z,6.38
2022-10-24T16:08:24.209Z,6.30
2022-10-24T16:11:16.453Z,5.55
2022-10-24T16:13:43.868Z,5.10
2022-10-24T16:16:11.042Z,6.43
2022-10-24T16:23:05.677Z,6.65
2022-10-24T16:25:37.404Z,8.73
2022-10-24T16:28:51.134Z,9.95
2022-10-24T16:31:23.723Z,11.48
2022-10-24T16:34:41.342Z,13.73
2022-10-24T16:37:08.481Z,11.65
2022-10-24T16:39:35.571Z,11.38
2022-10-24T16:46:31.295Z,10.70
2022-10-24T16:48:58.755Z,10.02
2022-10-24T16:54:54.585Z,10.40
2022-10-24T16:59:51.037Z,11.00
2022-10-24T17:02:24.910Z,11.30
2022-10-24T17:04:52.283Z,10.90
2022-10-24T17:07:20.680Z,10.77
2022-10-24T17:09:54.873Z,11.68
2022-10-24T17:14:49.433Z,11.90
2022-10-24T17:21:50.446Z,9.60
2022-10-24T17:24:45.836Z,10.32
2022-10-24T17:27:14.908Z,11.02
2022-10-24T17:30:08.018Z,10.05
2022-10-24T17:32:35.237Z,12.18
2022-10-24T17:35:02.780Z,9.68
2022-10-24T17:44:55.682Z,9.18
2022-10-24T17:47:22.897Z,9.95
2022-10-24T17:50:18.640Z,9.00
2022-10-24T17:52:51.071Z,10.70
2022-10-24T17:55:48.426Z,11.82
2022-10-24T17:58:16.365Z,13.73
2022-10-24T18:00:44.330Z,13.40
2022-10-24T18:03:12.184Z,10.80
2022-10-24T18:05:39.850Z,12.43
2022-10-24T18:08:25.978Z,13.00
2022-10-24T18:10:53.167Z,12.00
2022-10-24T18:13:20.301Z,12.40
2022-10-24T18:15:47.475Z,12.32
2022-10-24T18:18:17.356Z,12.52
2022-10-24T18:25:36.760Z,10.80
2022-10-24T18:28:03.972Z,11.57
2022-10-24T18:30:31.311Z,11.38
2022-10-24T18:33:26.386Z,13.05
2022-10-24T18:35:53.517Z,12.35
2022-10-24T18:38:20.699Z,12.25
2022-10-24T18:58:16.455Z,10.10
2022-10-24T19:00:44.196Z,10.82
2022-10-24T19:03:39.977Z,9.98
2022-10-24T19:06:28.279Z,10.43
2022-10-24T19:09:57.259Z,11.30
2022-10-24T19:12:24.573Z,14.48
2022-10-24T19:14:52.064Z,16.60
2022-10-24T19:17:45.726Z,15.52
2022-10-24T19:20:22.482Z,13.52
2022-10-24T19:27:34.524Z,13.07
2022-10-24T19:30:01.769Z,11.73
2022-10-24T19:32:28.911Z,11.95
2022-10-24T19:40:29.238Z,15.77
2022-10-24T19:42:59.145Z,13.57
2022-10-24T19:45:26.275Z,14.43
2022-10-24T19:52:40.589Z,11.05
2022-10-24T19:55:08.087Z,9.95
2022-10-24T19:57:35.167Z,10.45
2022-10-24T20:00:16.008Z,10.55
2022-10-24T20:02:43.578Z,10.30
2022-10-24T20:05:10.872Z,10.43
2022-10-24T20:08:55.111Z,9.10
2022-10-24T20:11:23.147Z,10.35
2022-10-24T20:13:51.337Z,9.63
2022-10-24T20:20:20.513Z,9.25
2022-10-24T20:29:36.214Z,8.80
2022-10-24T20:32:19.357Z,8.80
2022-10-24T20:34:46.459Z,10.65
2022-10-24T20:37:13.672Z,10.38
2022-10-24T20:43:43.613Z,8.93
2022-10-24T20:46:29.076Z,9.05
2022-10-24T20:48:56.209Z,9.90
2022-10-24T20:51:23.522Z,10.27
2022-10-24T20:58:22.552Z,9.75
2022-10-24T21:00:49.731Z,10.18
2022-10-24T21:03:24.707Z,9.05
2022-10-24T21:05:51.845Z,10.68
2022-10-24T21:08:19.142Z,9.73
2022-10-24T21:11:37.019Z,9.65
2022-10-24T21:14:06.996Z,11.27
2022-10-24T21:19:41.434Z,10.90
2022-10-24T21:22:08.708Z,10.63
2022-10-24T21:33:13.928Z,9.50
2022-10-24T21:35:41.012Z,9.88
2022-10-24T21:38:16.688Z,9.85
2022-10-24T21:40:43.894Z,10.40
2022-10-24T21:43:11.093Z,10.20
2022-10-24T21:49:55.515Z,10.52
2022-10-24T21:52:24.108Z,10.50
2022-10-24T21:54:51.274Z,10.38
2022-10-24T21:57:18.464Z,9.30
2022-10-24T21:59:45.662Z,10.88
2022-10-24T22:02:38.390Z,9.32
2022-10-24T22:05:05.909Z,11.10
2022-10-24T22:07:33.049Z,10.35
2022-10-24T22:10:00.204Z,10.55
2022-10-24T22:12:27.805Z,9.43
2022-10-24T22:16:13.014Z,9.95
2022-10-24T22:18:40.406Z,9.95
2022-10-24T22:21:09.971Z,11.30
2022-10-24T22:24:28.198Z,12.98
2022-10-24T22:26:55.456Z,10.93
2022-10-24T22:29:24.390Z,10.77
2022-10-24T22:32:29.344Z,10.20
2022-10-24T22:34:56.708Z,9.52
2022-10-24T22:37:55.472Z,8.95
2022-10-24T22:40:25.170Z,8.38
2022-10-24T22:42:52.785Z,10.13
2022-10-24T22:46:03.548Z,8.45
2022-10-24T22:48:33.361Z,8.65
2022-10-24T22:54:53.185Z,8.48
2022-10-24T22:57:20.843Z,6.82
2022-10-24T23:00:54.133Z,7.40
2022-10-24T23:03:36.301Z,7.07
2022-10-24T23:10:56.455Z,6.05
2022-10-24T23:13:24.105Z,5.80
2022-10-24T23:15:54.576Z,5.55
2022-10-24T23:18:21.997Z,5.43
2022-10-24T23:33:30.514Z,6.07
2022-10-24T23:35:59.783Z,5.78
2022-10-24T23:42:55.556Z,5.50
2022-10-24T23:45:26.973Z,6.32
2022-10-24T23:56:03.029Z,4.85
2022-10-24T23:58:30.167Z,4.85
